Time;durP1;ratioP1;P1;durP2;ratioP2;P2;SDS_P1;SDS_P2;PMS_P1;PMS_P2;Temp;Humidity;BMP_temperature;BMP_pressure;BME280_temperature;BME280_humidity;BME280_pressure;Samples;Min_cycle;Max_cycle;Signal;HPM_P1;HPM_P2
2023/07/15 00:09:53;;;;;;;1.83;1.00;;;;;;;23.03;30.91;99557.13;20935315;28;20211;-84
2023/07/15 00:19:56;;;;;;;2.13;1.10;;;;;;;23.01;30.63;99557.53;20975573;28;20276;-82
2023/07/15 00:29:59;;;;;;;2.78;1.00;;;;;;;23.01;30.28;99553.84;20924000;28;20199;-81
2023/07/15 00:40:07;;;;;;;2.25;0.90;;;;;;;22.79;30.35;99539.81;20966078;28;20540;-85
2023/07/15 00:50:10;;;;;;;1.63;1.00;;;;;;;22.85;29.81;99540.97;20964220;28;20284;-81
2023/07/15 01:00:16;;;;;;;1.65;0.70;;;;;;;22.76;30.56;99537.78;20946797;28;20206;-84
2023/07/15 01:10:20;;;;;;;2.40;1.20;;;;;;;22.96;30.17;99535.09;20949272;28;20247;-80
2023/07/15 01:20:25;;;;;;;3.47;1.02;;;;;;;22.97;30.19;99541.66;20948251;28;20689;-78
2023/07/15 01:30:29;;;;;;;3.38;1.33;;;;;;;22.92;30.18;99533.47;20951302;28;20199;-84
2023/07/15 01:40:31;;;;;;;2.50;0.80;;;;;;;23.22;30.20;99530.59;20957543;28;20268;-83
2023/07/15 01:50:35;;;;;;;3.25;1.20;;;;;;;23.22;29.94;99524.84;20974385;28;20215;-80
2023/07/15 02:00:38;;;;;;;1.80;0.90;;;;;;;23.17;30.76;99522.44;20941684;28;20238;-85
2023/07/15 02:10:40;;;;;;;2.25;1.00;;;;;;;22.75;30.79;99510.34;20974275;28;20227;-83
2023/07/15 02:20:45;;;;;;;4.38;1.10;;;;;;;22.38;31.32;99504.75;20958754;28;20207;-82
2023/07/15 02:30:47;;;;;;;1.52;0.85;;;;;;;22.29;31.71;99507.31;20956086;28;20183;-79
2023/07/15 02:40:50;;;;;;;1.00;1.00;;;;;;;22.17;31.39;99493.53;20970697;28;20685;-78
2023/07/15 02:50:54;;;;;;;2.83;0.90;;;;;;;22.27;31.93;99483.97;20970137;28;20564;-83
2023/07/15 03:00:56;;;;;;;1.83;0.80;;;;;;;22.29;31.12;99481.50;20941106;28;20280;-81
2023/07/15 03:10:59;;;;;;;2.65;1.10;;;;;;;22.50;31.32;99484.09;20987894;28;20299;-85
2023/07/15 03:21:01;;;;;;;2.90;0.85;;;;;;;22.22;31.70;99495.91;20953491;28;20211;-81
2023/07/15 03:31:04;;;;;;;1.92;0.80;;;;;;;22.17;31.34;99499.28;20945823;28;20195;-80
2023/07/15 03:41:08;;;;;;;1.98;0.90;;;;;;;22.32;31.35;99500.72;20983314;28;20272;-85
2023/07/15 03:51:10;;;;;;;1.08;0.77;;;;;;;22.28;31.53;99499.94;20949820;28;20646;-83
2023/07/15 04:01:13;;;;;;;2.47;0.98;;;;;;;22.53;30.96;99494.72;20965352;28;20227;-85
2023/07/15 04:11:17;;;;;;;1.73;0.60;;;;;;;22.46;31.73;99491.97;20954688;28;20219;-84
2023/07/15 04:21:20;;;;;;;2.08;0.90;;;;;;;22.38;31.94;99493.28;20966472;28;20260;-86
2023/07/15 04:31:23;;;;;;;3.05;1.20;;;;;;;22.17;32.19;99497.22;20967807;28;20249;-80
2023/07/15 04:41:25;;;;;;;1.15;1.00;;;;;;;22.36;32.43;99490.00;20957953;28;20230;-84
2023/07/15 04:51:28;;;;;;;2.28;0.90;;;;;;;22.27;32.77;99498.31;20935262;28;20237;-83
2023/07/15 05:01:31;;;;;;;2.65;0.73;;;;;;;23.08;31.95;99491.44;21003994;28;20218;-81
2023/07/15 05:11:34;;;;;;;1.67;0.90;;;;;;;22.61;33.04;99490.50;20969475;28;20276;-83
2023/07/15 05:21:37;;;;;;;2.35;1.00;;;;;;;22.90;32.72;99490.88;20942667;28;20237;-77
2023/07/15 05:31:40;;;;;;;4.53;2.38;;;;;;;23.09;32.46;99477.91;20954607;28;20661;-76
2023/07/15 05:41:42;;;;;;;2.83;0.77;;;;;;;22.73;34.28;99512.84;20943096;28;20286;-82
2023/07/15 05:51:45;;;;;;;1.25;0.80;;;;;;;23.01;33.26;99505.06;20949299;28;20219;-78
2023/07/15 06:01:47;;;;;;;1.25;0.98;;;;;;;23.19;33.65;99491.25;20927792;28;20227;-83
2023/07/15 06:11:50;;;;;;;0.88;0.60;;;;;;;23.30;33.21;99502.56;20925491;28;20554;-80
2023/07/15 06:21:53;;;;;;;1.85;1.10;;;;;;;23.65;32.97;99493.31;20918649;28;20651;-80
2023/07/15 06:31:56;;;;;;;1.13;0.68;;;;;;;24.11;32.34;99485.88;20976401;28;20245;-81
2023/07/15 06:41:58;;;;;;;2.83;1.08;;;;;;;23.78;32.63;99494.28;20922592;28;20656;-80
2023/07/15 06:52:01;;;;;;;2.58;0.75;;;;;;;23.76;32.49;99491.06;20931694;28;20702;-78
2023/07/15 07:02:04;;;;;;;2.33;0.80;;;;;;;23.44;33.05;99503.13;20920241;28;20247;-80
2023/07/15 07:12:06;;;;;;;4.45;1.00;;;;;;;24.32;32.40;99502.69;20930051;28;20223;-85
2023/07/15 07:22:09;;;;;;;1.13;0.98;;;;;;;23.89;33.42;99502.72;20942168;28;20208;-83
2023/07/15 07:32:12;;;;;;;3.72;1.95;;;;;;;25.58;31.31;99497.22;20931892;28;20187;-78
2023/07/15 07:42:14;;;;;;;3.50;0.90;;;;;;;25.24;31.78;99514.16;20905789;28;20273;-86
2023/07/15 07:52:17;;;;;;;1.95;0.80;;;;;;;24.69;32.62;99523.66;20946463;28;20214;-83
2023/07/15 08:02:20;;;;;;;0.93;0.90;;;;;;;24.68;32.88;99522.84;20926159;28;20550;-79
2023/07/15 08:12:22;;;;;;;1.23;1.10;;;;;;;25.27;33.08;99537.13;20958178;28;20214;-78
2023/07/15 08:22:24;;;;;;;0.60;0.60;;;;;;;25.20;33.19;99533.59;20940280;28;20278;-79
2023/07/15 08:32:27;;;;;;;2.67;0.85;;;;;;;24.98;34.12;99552.63;20947476;28;20587;-84
2023/07/15 08:42:30;;;;;;;2.40;0.70;;;;;;;25.01;33.64;99569.00;20945268;28;20751;-84
2023/07/15 08:52:33;;;;;;;3.75;1.10;;;;;;;23.82;36.05;99600.53;20937751;28;20216;-80
2023/07/15 09:02:37;;;;;;;2.13;0.77;;;;;;;24.07;36.13;99621.03;20936478;28;20249;-81
2023/07/15 09:12:45;;;;;;;3.67;1.13;;;;;;;24.00;36.11;99647.03;20940926;28;20566;-78
2023/07/15 09:22:53;;;;;;;4.07;1.08;;;;;;;23.64;38.98;99674.75;20950358;28;20223;-82
2023/07/15 09:32:56;;;;;;;8.52;1.60;;;;;;;20.60;57.50;99757.94;20926198;28;20591;-81
2023/07/15 09:42:59;;;;;;;3.88;2.17;;;;;;;20.02;65.70;99742.03;20940006;28;20245;-80
2023/07/15 09:53:03;;;;;;;5.88;2.30;;;;;;;19.94;66.17;99771.84;20953272;28;20223;-80
2023/07/15 10:03:09;;;;;;;5.85;2.40;;;;;;;19.41;70.48;99782.28;20964578;28;20203;-80
2023/07/15 10:13:13;;;;;;;2.80;2.45;;;;;;;19.64;70.40;99755.03;20960205;28;20219;-79
2023/07/15 10:23:24;;;;;;;4.78;2.40;;;;;;;19.52;72.39;99731.75;20942088;28;20252;-78
2023/07/15 10:33:27;;;;;;;5.30;2.35;;;;;;;19.48;72.04;99673.88;20936695;28;20260;-78
2023/07/15 10:43:33;;;;;;;4.97;1.95;;;;;;;20.12;70.71;99656.78;20934966;28;20702;-78
2023/07/15 10:53:36;;;;;;;4.43;3.13;;;;;;;19.93;71.59;99649.44;20936851;28;20277;-80
2023/07/15 11:03:41;;;;;;;4.68;2.17;;;;;;;20.83;68.34;99622.25;20953139;28;20512;-79
2023/07/15 11:13:46;;;;;;;2.88;1.80;;;;;;;21.26;66.65;99640.84;20977834;28;20618;-79
2023/07/15 11:23:49;;;;;;;1.58;1.48;;;;;;;21.04;67.64;99673.66;20962849;28;20222;-79
2023/07/15 11:33:52;;;;;;;1.48;1.17;;;;;;;21.28;65.82;99672.72;20966701;28;20191;-77
2023/07/15 11:43:57;;;;;;;1.52;1.25;;;;;;;22.72;61.62;99683.34;20972408;28;20271;-79
2023/07/15 11:54:00;;;;;;;1.25;0.95;;;;;;;22.70;61.26;99651.41;20913837;28;20269;-78
2023/07/15 12:04:17;;;;;;;1.30;1.20;;;;;;;22.74;61.16;99634.94;20906771;28;20268;-78
2023/07/15 12:14:20;;;;;;;1.52;1.38;;;;;;;23.34;58.96;99630.44;20934759;28;20242;-79
2023/07/15 12:24:22;;;;;;;2.53;1.13;;;;;;;23.41;57.09;99633.19;20936299;28;20259;-78
2023/07/15 12:34:25;;;;;;;2.17;1.27;;;;;;;24.23;56.41;99626.91;20933295;28;20261;-81
2023/07/15 12:44:27;;;;;;;2.20;1.45;;;;;;;23.70;56.55;99609.78;20940183;28;20223;-79
2023/07/15 12:54:30;;;;;;;3.05;1.45;;;;;;;24.19;56.56;99622.47;20952700;28;20556;-80
2023/07/15 13:04:32;;;;;;;1.83;1.38;;;;;;;23.39;58.15;99635.69;20920418;28;20226;-81
2023/07/15 13:14:35;;;;;;;2.50;1.70;;;;;;;23.57;57.89;99626.00;20935042;28;20608;-79
2023/07/15 13:24:37;;;;;;;4.20;1.63;;;;;;;22.92;58.13;99628.16;20908576;28;20262;-80
2023/07/15 13:34:40;;;;;;;3.28;1.92;;;;;;;22.91;57.44;99613.00;20911595;28;20280;-79
2023/07/15 13:44:42;;;;;;;1.67;1.50;;;;;;;23.96;52.51;99539.94;20924268;28;20530;-79
2023/07/15 13:54:45;;;;;;;2.35;1.80;;;;;;;23.33;55.60;99579.19;20971424;28;20237;-80
2023/07/15 14:04:47;;;;;;;2.85;1.70;;;;;;;23.66;55.52;99598.34;20939047;28;20219;-79
2023/07/15 14:14:50;;;;;;;2.22;2.03;;;;;;;23.76;54.01;99600.25;20950973;28;20215;-80
2023/07/15 14:24:53;;;;;;;2.00;1.80;;;;;;;23.41;53.64;99574.97;20942375;28;20278;-80
2023/07/15 14:34:55;;;;;;;4.00;2.03;;;;;;;23.93;51.38;99575.28;20946621;28;20217;-84
2023/07/15 14:44:57;;;;;;;2.95;2.00;;;;;;;24.25;51.70;99564.03;20938474;28;20285;-79
2023/07/15 14:55:00;;;;;;;2.63;1.83;;;;;;;24.04;51.82;99563.59;20946228;28;20274;-79
2023/07/15 15:05:03;;;;;;;3.20;1.73;;;;;;;24.35;51.57;99578.63;20943593;28;20215;-78
2023/07/15 15:15:06;;;;;;;2.83;1.60;;;;;;;24.14;51.50;99566.31;20949905;28;20365;-79
2023/07/15 15:25:09;;;;;;;1.70;1.60;;;;;;;24.23;48.79;99572.28;20913311;28;20227;-80
2023/07/15 15:35:11;;;;;;;5.68;1.80;;;;;;;25.24;47.03;99566.81;20921359;28;20222;-79
2023/07/15 15:45:14;;;;;;;1.85;1.65;;;;;;;24.69;47.48;99538.88;20906321;28;20680;-80
2023/07/15 15:55:16;;;;;;;1.67;1.30;;;;;;;24.75;47.82;99516.16;20914287;28;20261;-80
2023/07/15 16:05:19;;;;;;;2.17;1.45;;;;;;;25.52;46.36;99510.56;20909944;28;20296;-84
2023/07/15 16:15:21;;;;;;;2.65;1.52;;;;;;;25.27;46.92;99501.75;20918101;28;20249;-82
2023/07/15 16:25:24;;;;;;;3.72;1.50;;;;;;;25.02;46.38;99508.09;20913352;28;20231;-81
2023/07/15 16:35:28;;;;;;;1.88;1.23;;;;;;;25.29;44.41;99502.13;20924539;28;20295;-81
2023/07/15 16:45:30;;;;;;;1.38;0.90;;;;;;;24.45;45.58;99497.06;20917868;28;20356;-80
2023/07/15 16:55:34;;;;;;;2.38;1.50;;;;;;;25.00;44.73;99518.44;20935224;28;20576;-81
2023/07/15 17:05:38;;;;;;;1.15;1.08;;;;;;;24.94;44.87;99513.19;20932241;28;20220;-82
2023/07/15 17:15:41;;;;;;;1.10;1.00;;;;;;;25.02;43.84;99510.16;20941015;28;20226;-82
2023/07/15 17:25:43;;;;;;;1.77;1.20;;;;;;;24.73;45.66;99513.72;20953541;28;20242;-82
2023/07/15 17:35:46;;;;;;;3.78;1.48;;;;;;;24.65;42.99;99503.63;20953259;28;20587;-82
2023/07/15 17:45:49;;;;;;;0.90;0.90;;;;;;;24.76;42.98;99492.69;20930583;28;20216;-81
2023/07/15 17:55:52;;;;;;;1.52;1.05;;;;;;;24.41;44.10;99481.97;20918149;28;20215;-81
2023/07/15 18:05:54;;;;;;;1.00;0.80;;;;;;;23.78;46.07;99482.00;20911737;28;20253;-81
2023/07/15 18:15:57;;;;;;;1.55;0.98;;;;;;;24.54;44.45;99485.78;20924662;28;20227;-80
2023/07/15 18:26:00;;;;;;;4.07;1.55;;;;;;;24.63;43.84;99493.78;20936640;28;20258;-80
2023/07/15 18:36:02;;;;;;;1.75;0.90;;;;;;;24.15;43.87;99516.19;20950590;28;20191;-82
2023/07/15 18:46:05;;;;;;;1.95;0.93;;;;;;;23.89;44.23;99534.34;20915853;28;20269;-79
2023/07/15 18:56:07;;;;;;;1.23;0.77;;;;;;;23.97;44.20;99576.06;20933796;28;20204;-79
2023/07/15 19:06:10;;;;;;;2.75;1.00;;;;;;;23.65;44.88;99621.75;20939167;28;20284;-80
2023/07/15 19:16:14;;;;;;;3.42;1.00;;;;;;;23.70;44.49;99618.41;20943767;28;20535;-80
2023/07/15 19:26:16;;;;;;;1.00;0.80;;;;;;;23.38;45.45;99639.03;20947715;28;20823;-79
2023/07/15 19:36:19;;;;;;;0.60;0.40;;;;;;;21.26;54.04;99672.31;20910172;28;20203;-81
2023/07/15 19:46:22;;;;;;;0.68;0.63;;;;;;;21.16;57.09;99638.84;20921610;28;20227;-80
2023/07/15 19:56:24;;;;;;;0.98;0.55;;;;;;;21.11;54.43;99679.31;20917067;28;20523;-81
2023/07/15 20:06:27;;;;;;;1.58;0.30;;;;;;;21.50;50.79;99666.84;20931936;28;20219;-80
2023/07/15 20:16:31;;;;;;;0.75;0.55;;;;;;;20.99;49.16;99648.31;20935405;28;20280;-81
2023/07/15 20:26:34;;;;;;;1.23;0.40;;;;;;;21.23;48.23;99704.63;20959037;28;20219;-81
2023/07/15 20:36:36;;;;;;;1.92;0.30;;;;;;;20.73;47.53;99676.22;20944733;28;20256;-79
2023/07/15 20:46:39;;;;;;;3.05;0.50;;;;;;;20.79;46.56;99665.16;20953845;28;20272;-82
2023/07/15 20:56:42;;;;;;;3.35;0.70;;;;;;;20.65;46.82;99674.59;20938165;28;20221;-80
2023/07/15 21:06:44;;;;;;;0.70;0.50;;;;;;;20.84;45.32;99692.53;20954751;28;20219;-81
2023/07/15 21:16:46;;;;;;;1.73;0.85;;;;;;;20.28;45.47;99740.00;20956443;28;20222;-79
2023/07/15 21:26:54;;;;;;;1.58;0.60;;;;;;;20.61;44.24;99730.19;20950396;28;20281;-80
2023/07/15 21:36:57;;;;;;;1.08;0.75;;;;;;;20.83;43.61;99736.66;20960205;28;20213;-81
2023/07/15 21:46:59;;;;;;;1.85;0.80;;;;;;;20.70;43.51;99768.53;20954322;28;20592;-80
2023/07/15 21:57:02;;;;;;;1.80;0.50;;;;;;;20.69;43.89;99795.50;20939384;28;20191;-81
2023/07/15 22:07:05;;;;;;;2.58;0.73;;;;;;;20.41;46.22;99815.50;20940831;28;20628;-79
2023/07/15 22:17:07;;;;;;;1.33;0.60;;;;;;;20.22;46.45;99858.78;20952476;28;20245;-81
2023/07/15 22:27:10;;;;;;;1.75;0.60;;;;;;;20.72;45.44;99829.00;20984145;28;20775;-82
2023/07/15 22:37:12;;;;;;;1.65;0.90;;;;;;;20.50;47.62;99850.22;20958099;28;20217;-83
2023/07/15 22:47:15;;;;;;;3.38;0.85;;;;;;;19.26;57.82;99782.22;20976227;28;20647;-78
2023/07/15 22:57:17;;;;;;;2.17;0.73;;;;;;;19.30;60.71;99828.72;20948752;28;20576;-78
2023/07/15 23:07:21;;;;;;;3.70;1.33;;;;;;;19.94;58.49;99840.38;20990517;28;20615;-80
2023/07/15 23:17:23;;;;;;;2.67;1.15;;;;;;;19.17;62.73;99796.03;20945683;28;20582;-79
2023/07/15 23:27:27;;;;;;;2.10;1.33;;;;;;;19.57;59.42;99831.28;20965546;28;20276;-79
2023/07/15 23:37:29;;;;;;;2.25;1.17;;;;;;;19.73;57.36;99862.31;20944745;28;20199;-79
2023/07/15 23:47:32;;;;;;;1.85;1.10;;;;;;;19.51;58.42;99861.41;20963466;28;20588;-80
2023/07/15 23:57:35;;;;;;;3.97;1.00;;;;;;;19.87;55.93;99859.50;20961473;28;20199;-77
